OKBRT LOWW-LKTB
Flight info
| Callsign | OKBRT |
|---|---|
| Flight time | 0h 45m |
| Altitude | 3500 |
| Route | FREUDENAU DONAUTURM KLOSTERNEUBURG KREUZENSTEIN MISTELBACH POISDORF MIKULOV VICTOR ALFA |
| Aircraft | C172/L-S/L |
Departure
| Time | 2026-04-26 09:19 |
|---|---|
| Airport | Vienna International Airport (LOWW) |
Arrival
| Time | 2026-04-26 10:05 |
|---|---|
| Airport | Brno-Tuřany Airport (LKTB) |
| Time | Latitude | Longitude | Altitude | Speed | Heading |
|---|---|---|---|---|---|
| 2026-04-26 08:51 | 48.12767 | 16.53522 | 609 ft | 0 kts | 296° |
| 2026-04-26 08:52 | 48.12767 | 16.53523 | 609 ft | 0 kts | 297° |
| 2026-04-26 08:54 | 48.12767 | 16.53524 | 604 ft | 0 kts | 297° |
| 2026-04-26 08:55 | 48.12766 | 16.53524 | 604 ft | 0 kts | 297° |
| 2026-04-26 08:56 | 48.12766 | 16.53525 | 604 ft | 0 kts | 297° |
| 2026-04-26 08:58 | 48.12766 | 16.53526 | 604 ft | 0 kts | 297° |
| 2026-04-26 09:00 | 48.12766 | 16.53527 | 604 ft | 0 kts | 297° |
| 2026-04-26 09:00 | 48.12765 | 16.53527 | 604 ft | 0 kts | 297° |
| 2026-04-26 09:03 | 48.12766 | 16.53527 | 604 ft | 1 kts | 296° |
| 2026-04-26 09:04 | 48.12760 | 16.53517 | 604 ft | 1 kts | 166° |
| 2026-04-26 09:04 | 48.12735 | 16.53574 | 604 ft | 0 kts | 154° |
| 2026-04-26 09:04 | 48.12716 | 16.53563 | 604 ft | 6 kts | 208° |
| 2026-04-26 09:04 | 48.12700 | 16.53553 | 604 ft | 4 kts | 195° |
| 2026-04-26 09:05 | 48.12659 | 16.53570 | 609 ft | 7 kts | 163° |
| 2026-04-26 09:05 | 48.12603 | 16.53541 | 604 ft | 9 kts | 207° |
| 2026-04-26 09:05 | 48.12598 | 16.53536 | 617 ft | 0 kts | 207° |
| 2026-04-26 09:06 | 48.12598 | 16.53537 | 617 ft | 0 kts | 207° |
| 2026-04-26 09:06 | 48.12593 | 16.53533 | 612 ft | 5 kts | 207° |
| 2026-04-26 09:06 | 48.12537 | 16.53503 | 604 ft | 10 kts | 181° |
| 2026-04-26 09:07 | 48.12470 | 16.53494 | 604 ft | 10 kts | 190° |
| 2026-04-26 09:07 | 48.12421 | 16.53552 | 604 ft | 10 kts | 116° |
| 2026-04-26 09:07 | 48.12387 | 16.53658 | 608 ft | 13 kts | 117° |
| 2026-04-26 09:07 | 48.12342 | 16.53801 | 604 ft | 17 kts | 109° |
| 2026-04-26 09:08 | 48.12285 | 16.53974 | 606 ft | 20 kts | 115° |
| 2026-04-26 09:08 | 48.12222 | 16.54163 | 604 ft | 20 kts | 114° |
| 2026-04-26 09:08 | 48.12161 | 16.54353 | 610 ft | 21 kts | 116° |
| 2026-04-26 09:08 | 48.12097 | 16.54545 | 609 ft | 21 kts | 112° |
| 2026-04-26 09:09 | 48.12035 | 16.54736 | 604 ft | 20 kts | 112° |
| 2026-04-26 09:09 | 48.11978 | 16.54915 | 604 ft | 18 kts | 115° |
| 2026-04-26 09:09 | 48.11922 | 16.55081 | 606 ft | 17 kts | 114° |
| 2026-04-26 09:09 | 48.11870 | 16.55244 | 611 ft | 18 kts | 115° |
| 2026-04-26 09:10 | 48.11816 | 16.55410 | 604 ft | 18 kts | 112° |
| 2026-04-26 09:10 | 48.11763 | 16.55578 | 604 ft | 18 kts | 115° |
| 2026-04-26 09:10 | 48.11708 | 16.55745 | 607 ft | 18 kts | 114° |
| 2026-04-26 09:10 | 48.11652 | 16.55913 | 609 ft | 18 kts | 114° |
| 2026-04-26 09:11 | 48.11598 | 16.56082 | 611 ft | 18 kts | 114° |
| 2026-04-26 09:11 | 48.11542 | 16.56252 | 612 ft | 18 kts | 114° |
| 2026-04-26 09:11 | 48.11486 | 16.56418 | 604 ft | 18 kts | 111° |
| 2026-04-26 09:11 | 48.11435 | 16.56587 | 604 ft | 18 kts | 120° |
| 2026-04-26 09:12 | 48.11380 | 16.56754 | 608 ft | 18 kts | 119° |
| 2026-04-26 09:12 | 48.11325 | 16.56921 | 611 ft | 18 kts | 114° |
| 2026-04-26 09:12 | 48.11270 | 16.57088 | 614 ft | 18 kts | 111° |
| 2026-04-26 09:12 | 48.11215 | 16.57253 | 604 ft | 18 kts | 111° |
| 2026-04-26 09:13 | 48.11164 | 16.57419 | 608 ft | 18 kts | 114° |
| 2026-04-26 09:13 | 48.11107 | 16.57585 | 611 ft | 18 kts | 110° |
| 2026-04-26 09:13 | 48.11051 | 16.57749 | 604 ft | 17 kts | 128° |
| 2026-04-26 09:13 | 48.10944 | 16.57837 | 604 ft | 19 kts | 163° |
| 2026-04-26 09:14 | 48.10808 | 16.57894 | 612 ft | 22 kts | 168° |
| 2026-04-26 09:14 | 48.10666 | 16.57951 | 604 ft | 21 kts | 160° |
| 2026-04-26 09:14 | 48.10526 | 16.58012 | 606 ft | 22 kts | 167° |
| 2026-04-26 09:14 | 48.10376 | 16.58074 | 604 ft | 23 kts | 164° |
| 2026-04-26 09:15 | 48.10217 | 16.58143 | 604 ft | 24 kts | 168° |
| 2026-04-26 09:15 | 48.10114 | 16.58191 | 604 ft | 11 kts | 148° |
| 2026-04-26 09:15 | 48.10094 | 16.58284 | 604 ft | 8 kts | 72° |
| 2026-04-26 09:15 | 48.10111 | 16.58354 | 607 ft | 7 kts | 64° |
| 2026-04-26 09:16 | 48.10120 | 16.58376 | 614 ft | 0 kts | 50° |
| 2026-04-26 09:17 | 48.10133 | 16.58393 | 607 ft | 6 kts | 34° |
| 2026-04-26 09:17 | 48.10194 | 16.58423 | 604 ft | 13 kts | 13° |
| 2026-04-26 09:17 | 48.10286 | 16.58455 | 604 ft | 13 kts | 11° |
| 2026-04-26 09:17 | 48.10372 | 16.58468 | 604 ft | 12 kts | 2° |
| 2026-04-26 09:18 | 48.10453 | 16.58461 | 612 ft | 12 kts | 348° |
| 2026-04-26 09:18 | 48.10490 | 16.58446 | 608 ft | 0 kts | 344° |
| 2026-04-26 09:18 | 48.10554 | 16.58418 | 609 ft | 31 kts | 344° |
| 2026-04-26 09:19 | 48.10886 | 16.58255 | 643 ft | 66 kts | 344° |
| 2026-04-26 09:19 | 48.11405 | 16.58032 | 745 ft | 83 kts | 345° |
| 2026-04-26 09:19 | 48.11977 | 16.57808 | 984 ft | 85 kts | 343° |
| 2026-04-26 09:19 | 48.12541 | 16.57509 | 1263 ft | 84 kts | 333° |
| 2026-04-26 09:20 | 48.13042 | 16.56953 | 1403 ft | 94 kts | 320° |
| 2026-04-26 09:20 | 48.13441 | 16.56134 | 1447 ft | 100 kts | 310° |
| 2026-04-26 09:20 | 48.13798 | 16.55224 | 1486 ft | 102 kts | 302° |
| 2026-04-26 09:20 | 48.14121 | 16.54371 | 1594 ft | 88 kts | 312° |
| 2026-04-26 09:21 | 48.14513 | 16.53666 | 1572 ft | 88 kts | 316° |
| 2026-04-26 09:21 | 48.14931 | 16.53043 | 1590 ft | 84 kts | 323° |
| 2026-04-26 09:21 | 48.15490 | 16.52714 | 1505 ft | 87 kts | 353° |
| 2026-04-26 09:21 | 48.16072 | 16.52763 | 1607 ft | 81 kts | 1° |
| 2026-04-26 09:22 | 48.16623 | 16.52890 | 1663 ft | 80 kts | 3° |
| 2026-04-26 09:22 | 48.17191 | 16.53002 | 1706 ft | 84 kts | 359° |
| 2026-04-26 09:22 | 48.17758 | 16.53055 | 1842 ft | 79 kts | 356° |
| 2026-04-26 09:22 | 48.18301 | 16.53055 | 1968 ft | 77 kts | 353° |
| 2026-04-26 09:23 | 48.18851 | 16.53005 | 2121 ft | 85 kts | 350° |
| 2026-04-26 09:23 | 48.19424 | 16.52899 | 2273 ft | 84 kts | 347° |
| 2026-04-26 09:23 | 48.19990 | 16.52751 | 2396 ft | 81 kts | 345° |
| 2026-04-26 09:23 | 48.20527 | 16.52569 | 2546 ft | 82 kts | 342° |
| 2026-04-26 09:24 | 48.21125 | 16.52335 | 2583 ft | 94 kts | 344° |
| 2026-04-26 09:24 | 48.21768 | 16.52125 | 2580 ft | 97 kts | 347° |
| 2026-04-26 09:24 | 48.22424 | 16.51958 | 2574 ft | 95 kts | 351° |
| 2026-04-26 09:24 | 48.23092 | 16.51975 | 2516 ft | 96 kts | 358° |
| 2026-04-26 09:25 | 48.23737 | 16.51993 | 2469 ft | 89 kts | 355° |
| 2026-04-26 09:25 | 48.24333 | 16.51979 | 2474 ft | 84 kts | 354° |
| 2026-04-26 09:25 | 48.24897 | 16.51930 | 2466 ft | 78 kts | 353° |
| 2026-04-26 09:25 | 48.25432 | 16.51863 | 2471 ft | 80 kts | 349° |
| 2026-04-26 09:26 | 48.25999 | 16.51717 | 2498 ft | 85 kts | 347° |
| 2026-04-26 09:26 | 48.26625 | 16.51521 | 2468 ft | 95 kts | 346° |
| 2026-04-26 09:26 | 48.27295 | 16.51281 | 2473 ft | 105 kts | 344° |
| 2026-04-26 09:26 | 48.28001 | 16.50980 | 2519 ft | 103 kts | 342° |
| 2026-04-26 09:27 | 48.28685 | 16.50647 | 2491 ft | 102 kts | 340° |
| 2026-04-26 09:27 | 48.29328 | 16.50290 | 2499 ft | 98 kts | 338° |
| 2026-04-26 09:27 | 48.29978 | 16.49893 | 2487 ft | 103 kts | 337° |
| 2026-04-26 09:27 | 48.30640 | 16.49450 | 2480 ft | 102 kts | 336° |
| 2026-04-26 09:28 | 48.31277 | 16.48996 | 2473 ft | 100 kts | 334° |
| 2026-04-26 09:28 | 48.31880 | 16.48526 | 2474 ft | 96 kts | 333° |
| 2026-04-26 09:28 | 48.32465 | 16.48027 | 2485 ft | 99 kts | 330° |
| 2026-04-26 09:28 | 48.33052 | 16.47467 | 2485 ft | 100 kts | 329° |
| 2026-04-26 09:29 | 48.33630 | 16.46882 | 2483 ft | 98 kts | 327° |
| 2026-04-26 09:29 | 48.34183 | 16.46275 | 2471 ft | 97 kts | 324° |
| 2026-04-26 09:29 | 48.34692 | 16.45667 | 2475 ft | 92 kts | 323° |
| 2026-04-26 09:29 | 48.35176 | 16.45035 | 2474 ft | 96 kts | 320° |
| 2026-04-26 09:30 | 48.35668 | 16.44335 | 2481 ft | 99 kts | 319° |
| 2026-04-26 09:30 | 48.36162 | 16.43697 | 2576 ft | 87 kts | 332° |
| 2026-04-26 09:30 | 48.36776 | 16.43466 | 2628 ft | 93 kts | 351° |
| 2026-04-26 09:30 | 48.37425 | 16.43484 | 2741 ft | 93 kts | 3° |
| 2026-04-26 09:31 | 48.38074 | 16.43781 | 2691 ft | 100 kts | 14° |
| 2026-04-26 09:31 | 48.38707 | 16.44297 | 2719 ft | 104 kts | 21° |
| 2026-04-26 09:31 | 48.39373 | 16.44814 | 2652 ft | 111 kts | 15° |
| 2026-04-26 09:31 | 48.39838 | 16.45077 | 2633 ft | 103 kts | 13° |
| 2026-04-26 09:32 | 48.40701 | 16.45502 | 2566 ft | 98 kts | 21° |
| 2026-04-26 09:32 | 48.41277 | 16.46102 | 2486 ft | 101 kts | 30° |
| 2026-04-26 09:32 | 48.41851 | 16.46719 | 2480 ft | 101 kts | 30° |
| 2026-04-26 09:32 | 48.42250 | 16.47128 | 2476 ft | 105 kts | 25° |
| 2026-04-26 09:33 | 48.42862 | 16.47712 | 2483 ft | 106 kts | 22° |
| 2026-04-26 09:33 | 48.43483 | 16.48273 | 2455 ft | 103 kts | 22° |
| 2026-04-26 09:33 | 48.44097 | 16.48789 | 2487 ft | 104 kts | 20° |
| 2026-04-26 09:33 | 48.44747 | 16.49288 | 2464 ft | 102 kts | 20° |
| 2026-04-26 09:34 | 48.45376 | 16.49738 | 2507 ft | 99 kts | 17° |
| 2026-04-26 09:34 | 48.46013 | 16.50149 | 2475 ft | 101 kts | 14° |
| 2026-04-26 09:34 | 48.46651 | 16.50537 | 2487 ft | 96 kts | 14° |
| 2026-04-26 09:34 | 48.47307 | 16.50891 | 2477 ft | 103 kts | 13° |
| 2026-04-26 09:35 | 48.47974 | 16.51218 | 2481 ft | 98 kts | 12° |
| 2026-04-26 09:35 | 48.48654 | 16.51522 | 2462 ft | 102 kts | 10° |
| 2026-04-26 09:35 | 48.49309 | 16.51790 | 2488 ft | 100 kts | 8° |
| 2026-04-26 09:35 | 48.50001 | 16.52042 | 2459 ft | 103 kts | 7° |
| 2026-04-26 09:36 | 48.50696 | 16.52255 | 2494 ft | 102 kts | 3° |
| 2026-04-26 09:36 | 48.51371 | 16.52687 | 2364 ft | 106 kts | 25° |
| 2026-04-26 09:36 | 48.51933 | 16.53347 | 2397 ft | 100 kts | 32° |
| 2026-04-26 09:36 | 48.52446 | 16.54039 | 2418 ft | 100 kts | 31° |
| 2026-04-26 09:37 | 48.52988 | 16.54735 | 2462 ft | 105 kts | 30° |
| 2026-04-26 09:37 | 48.53568 | 16.55412 | 2462 ft | 107 kts | 28° |
| 2026-04-26 09:37 | 48.54143 | 16.56072 | 2473 ft | 102 kts | 25° |
| 2026-04-26 09:37 | 48.54720 | 16.56702 | 2470 ft | 101 kts | 25° |
| 2026-04-26 09:38 | 48.55301 | 16.57293 | 2471 ft | 103 kts | 23° |
| 2026-04-26 09:38 | 48.55914 | 16.57870 | 2467 ft | 104 kts | 24° |
| 2026-04-26 09:38 | 48.56516 | 16.58417 | 2478 ft | 102 kts | 20° |
| 2026-04-26 09:38 | 48.57140 | 16.58934 | 2476 ft | 101 kts | 20° |
| 2026-04-26 09:39 | 48.57753 | 16.59411 | 2470 ft | 99 kts | 20° |
| 2026-04-26 09:39 | 48.58364 | 16.59847 | 2495 ft | 97 kts | 16° |
| 2026-04-26 09:39 | 48.58957 | 16.60234 | 2612 ft | 88 kts | 15° |
| 2026-04-26 09:39 | 48.59496 | 16.60554 | 2739 ft | 79 kts | 10° |
| 2026-04-26 09:40 | 48.59990 | 16.60804 | 2863 ft | 70 kts | 7° |
| 2026-04-26 09:40 | 48.60496 | 16.61005 | 2990 ft | 75 kts | 4° |
| 2026-04-26 09:40 | 48.61000 | 16.61141 | 3117 ft | 72 kts | 1° |
| 2026-04-26 09:40 | 48.61523 | 16.61248 | 3246 ft | 78 kts | 2° |
| 2026-04-26 09:41 | 48.62065 | 16.61342 | 3375 ft | 80 kts | 0° |
| 2026-04-26 09:41 | 48.62605 | 16.61407 | 3497 ft | 73 kts | 356° |
| 2026-04-26 09:41 | 48.63165 | 16.61429 | 3507 ft | 92 kts | 355° |
| 2026-04-26 09:41 | 48.63854 | 16.61405 | 3522 ft | 103 kts | 355° |
| 2026-04-26 09:42 | 48.64546 | 16.61345 | 3512 ft | 95 kts | 351° |
| 2026-04-26 09:42 | 48.65195 | 16.61246 | 3514 ft | 92 kts | 351° |
| 2026-04-26 09:42 | 48.65850 | 16.61122 | 3437 ft | 99 kts | 350° |
| 2026-04-26 09:42 | 48.66502 | 16.60970 | 3411 ft | 89 kts | 349° |
| 2026-04-26 09:43 | 48.67094 | 16.60800 | 3411 ft | 87 kts | 347° |
| 2026-04-26 09:43 | 48.67699 | 16.60588 | 3414 ft | 92 kts | 346° |
| 2026-04-26 09:43 | 48.68335 | 16.60334 | 3411 ft | 98 kts | 345° |
| 2026-04-26 09:43 | 48.68976 | 16.60052 | 3444 ft | 97 kts | 343° |
| 2026-04-26 09:44 | 48.69626 | 16.59734 | 3392 ft | 92 kts | 341° |
| 2026-04-26 09:44 | 48.70199 | 16.59423 | 3397 ft | 87 kts | 339° |
| 2026-04-26 09:44 | 48.70751 | 16.59085 | 3397 ft | 84 kts | 337° |
| 2026-04-26 09:44 | 48.71296 | 16.58742 | 3417 ft | 88 kts | 342° |
| 2026-04-26 09:45 | 48.71924 | 16.58625 | 3506 ft | 95 kts | 358° |
| 2026-04-26 09:45 | 48.72642 | 16.58615 | 3445 ft | 110 kts | 358° |
| 2026-04-26 09:45 | 48.73413 | 16.58574 | 3456 ft | 106 kts | 354° |
| 2026-04-26 09:45 | 48.74143 | 16.58510 | 3398 ft | 100 kts | 353° |
| 2026-04-26 09:46 | 48.74816 | 16.58422 | 3432 ft | 98 kts | 351° |
| 2026-04-26 09:46 | 48.75504 | 16.58299 | 3405 ft | 101 kts | 351° |
| 2026-04-26 09:46 | 48.76185 | 16.58146 | 3390 ft | 96 kts | 349° |
| 2026-04-26 09:46 | 48.76814 | 16.57965 | 3404 ft | 89 kts | 345° |
| 2026-04-26 09:47 | 48.77429 | 16.57757 | 3413 ft | 93 kts | 345° |
| 2026-04-26 09:47 | 48.78071 | 16.57515 | 3391 ft | 95 kts | 344° |
| 2026-04-26 09:47 | 48.78717 | 16.57241 | 3377 ft | 100 kts | 343° |
| 2026-04-26 09:47 | 48.79360 | 16.56947 | 3413 ft | 97 kts | 341° |
| 2026-04-26 09:48 | 48.79989 | 16.56626 | 3425 ft | 93 kts | 339° |
| 2026-04-26 09:48 | 48.80595 | 16.56274 | 3394 ft | 91 kts | 339° |
| 2026-04-26 09:48 | 48.81204 | 16.55884 | 3412 ft | 103 kts | 337° |
| 2026-04-26 09:48 | 48.81855 | 16.55433 | 3388 ft | 102 kts | 336° |
| 2026-04-26 09:49 | 48.82487 | 16.54975 | 3371 ft | 102 kts | 334° |
| 2026-04-26 09:49 | 48.83097 | 16.54487 | 3414 ft | 103 kts | 332° |
| 2026-04-26 09:49 | 48.83733 | 16.53973 | 3398 ft | 99 kts | 333° |
| 2026-04-26 09:49 | 48.84312 | 16.53592 | 3581 ft | 83 kts | 354° |
| 2026-04-26 09:50 | 48.84937 | 16.53740 | 3550 ft | 102 kts | 5° |
| 2026-04-26 09:50 | 48.85587 | 16.54061 | 3562 ft | 98 kts | 15° |
| 2026-04-26 09:50 | 48.86195 | 16.54523 | 3608 ft | 95 kts | 24° |
| 2026-04-26 09:50 | 48.86744 | 16.55182 | 3590 ft | 106 kts | 37° |
| 2026-04-26 09:51 | 48.87279 | 16.55969 | 3606 ft | 107 kts | 36° |
| 2026-04-26 09:51 | 48.87843 | 16.56748 | 3611 ft | 109 kts | 34° |
| 2026-04-26 09:51 | 48.88410 | 16.57493 | 3633 ft | 109 kts | 31° |
| 2026-04-26 09:51 | 48.89014 | 16.58254 | 3643 ft | 114 kts | 31° |
| 2026-04-26 09:52 | 48.89611 | 16.58973 | 3613 ft | 104 kts | 30° |
| 2026-04-26 09:52 | 48.90723 | 16.60215 | 3591 ft | 97 kts | 28° |
| 2026-04-26 09:52 | 48.91272 | 16.60776 | 3623 ft | 93 kts | 24° |
| 2026-04-26 09:53 | 48.91827 | 16.61298 | 3609 ft | 94 kts | 23° |
| 2026-04-26 09:53 | 48.92388 | 16.61789 | 3608 ft | 93 kts | 21° |
| 2026-04-26 09:53 | 48.92958 | 16.62251 | 3607 ft | 93 kts | 20° |
| 2026-04-26 09:53 | 48.93549 | 16.62680 | 3630 ft | 98 kts | 18° |
| 2026-04-26 09:54 | 48.94192 | 16.63099 | 3631 ft | 100 kts | 17° |
| 2026-04-26 09:54 | 48.94831 | 16.63495 | 3643 ft | 98 kts | 15° |
| 2026-04-26 09:54 | 48.95467 | 16.63859 | 3644 ft | 97 kts | 14° |
| 2026-04-26 09:54 | 48.96100 | 16.64187 | 3642 ft | 99 kts | 13° |
| 2026-04-26 09:55 | 48.96768 | 16.64483 | 3639 ft | 99 kts | 10° |
| 2026-04-26 09:55 | 48.97414 | 16.64732 | 3637 ft | 96 kts | 8° |
| 2026-04-26 09:55 | 48.98057 | 16.64954 | 3657 ft | 97 kts | 7° |
| 2026-04-26 09:55 | 48.98718 | 16.65150 | 3642 ft | 94 kts | 4° |
| 2026-04-26 09:56 | 48.99354 | 16.65438 | 3569 ft | 100 kts | 18° |
| 2026-04-26 09:56 | 48.99988 | 16.65944 | 3409 ft | 106 kts | 21° |
| 2026-04-26 09:56 | 49.00601 | 16.66438 | 3432 ft | 99 kts | 21° |
| 2026-04-26 09:56 | 49.01197 | 16.66899 | 3493 ft | 92 kts | 19° |
| 2026-04-26 09:57 | 49.01811 | 16.67349 | 3388 ft | 100 kts | 17° |
| 2026-04-26 09:57 | 49.02392 | 16.67806 | 3418 ft | 96 kts | 21° |
| 2026-04-26 09:57 | 49.03004 | 16.68266 | 3313 ft | 97 kts | 17° |
| 2026-04-26 09:57 | 49.03639 | 16.68616 | 3253 ft | 95 kts | 11° |
| 2026-04-26 09:58 | 49.04270 | 16.68892 | 3158 ft | 96 kts | 12° |
| 2026-04-26 09:58 | 49.04906 | 16.69157 | 3088 ft | 93 kts | 11° |
| 2026-04-26 09:58 | 49.05543 | 16.69427 | 2972 ft | 96 kts | 9° |
| 2026-04-26 09:58 | 49.06200 | 16.69669 | 2868 ft | 96 kts | 8° |
| 2026-04-26 09:59 | 49.06847 | 16.69900 | 2810 ft | 94 kts | 7° |
| 2026-04-26 09:59 | 49.07496 | 16.70103 | 2692 ft | 95 kts | 6° |
| 2026-04-26 09:59 | 49.08141 | 16.70256 | 2642 ft | 93 kts | 2° |
| 2026-04-26 09:59 | 49.08799 | 16.70303 | 2510 ft | 98 kts | 355° |
| 2026-04-26 10:00 | 49.09449 | 16.70188 | 2491 ft | 93 kts | 351° |
| 2026-04-26 10:00 | 49.10107 | 16.70151 | 2375 ft | 95 kts | 356° |
| 2026-04-26 10:00 | 49.10750 | 16.70206 | 2282 ft | 90 kts | 358° |
| 2026-04-26 10:00 | 49.11376 | 16.70172 | 2113 ft | 91 kts | 353° |
| 2026-04-26 10:01 | 49.12002 | 16.70071 | 1960 ft | 90 kts | 351° |
| 2026-04-26 10:01 | 49.12625 | 16.70025 | 1800 ft | 89 kts | 8° |
| 2026-04-26 10:01 | 49.13119 | 16.70604 | 1633 ft | 99 kts | 52° |
| 2026-04-26 10:01 | 49.13221 | 16.71675 | 1500 ft | 107 kts | 90° |
| 2026-04-26 10:02 | 49.13052 | 16.72757 | 1488 ft | 102 kts | 94° |
| 2026-04-26 10:02 | 49.12957 | 16.73766 | 1490 ft | 88 kts | 69° |
| 2026-04-26 10:02 | 49.13206 | 16.74521 | 1467 ft | 74 kts | 41° |
| 2026-04-26 10:02 | 49.13621 | 16.74905 | 1447 ft | 64 kts | 12° |
| 2026-04-26 10:03 | 49.14029 | 16.74901 | 1389 ft | 61 kts | 346° |
| 2026-04-26 10:03 | 49.14384 | 16.74521 | 1326 ft | 66 kts | 319° |
| 2026-04-26 10:03 | 49.14582 | 16.73924 | 1261 ft | 59 kts | 302° |
| 2026-04-26 10:03 | 49.14698 | 16.73353 | 1200 ft | 56 kts | 300° |
| 2026-04-26 10:04 | 49.14771 | 16.72754 | 1112 ft | 56 kts | 306° |
| 2026-04-26 10:04 | 49.14852 | 16.72210 | 1057 ft | 53 kts | 302° |
| 2026-04-26 10:04 | 49.14924 | 16.71631 | 952 ft | 56 kts | 297° |
| 2026-04-26 10:04 | 49.14976 | 16.71044 | 876 ft | 53 kts | 297° |
| 2026-04-26 10:05 | 49.15035 | 16.70496 | 814 ft | 51 kts | 296° |
| 2026-04-26 10:05 | 49.15074 | 16.69993 | 795 ft | 45 kts | 294° |
| 2026-04-26 10:05 | 49.15117 | 16.69578 | 797 ft | 31 kts | 276° |
| 2026-04-26 10:05 | 49.15140 | 16.69295 | 796 ft | 25 kts | 280° |
| 2026-04-26 10:06 | 49.15158 | 16.69046 | 795 ft | 23 kts | 274° |
| 2026-04-26 10:06 | 49.15179 | 16.68796 | 794 ft | 24 kts | 275° |
| 2026-04-26 10:06 | 49.15157 | 16.68608 | 792 ft | 15 kts | 195° |
| 2026-04-26 10:06 | 49.15081 | 16.68591 | 798 ft | 7 kts | 182° |
| 2026-04-26 10:07 | 49.15051 | 16.68543 | 799 ft | 7 kts | 261° |
| 2026-04-26 10:07 | 49.15053 | 16.68449 | 799 ft | 11 kts | 270° |
| 2026-04-26 10:07 | 49.15053 | 16.68312 | 800 ft | 13 kts | 270° |
| 2026-04-26 10:07 | 49.15045 | 16.68242 | 798 ft | 0 kts | 243° |
| 2026-04-26 10:08 | 49.15044 | 16.68239 | 798 ft | 1 kts | 217° |
| 2026-04-26 10:08 | 49.15015 | 16.68235 | 798 ft | 3 kts | 182° |
| 2026-04-26 10:08 | 49.14996 | 16.68252 | 798 ft | 3 kts | 103° |
| 2026-04-26 10:08 | 49.14991 | 16.68284 | 799 ft | 3 kts | 131° |
| 2026-04-26 10:09 | 49.14979 | 16.68284 | 800 ft | 3 kts | 191° |
| 2026-04-26 10:09 | 49.14971 | 16.68284 | 799 ft | 0 kts | 150° |
| 2026-04-26 10:10 | 49.14971 | 16.68283 | 799 ft | 0 kts | 150° |